Time;durP1;ratioP1;P1;durP2;ratioP2;P2;SDS_P1;SDS_P2;PMS_P1;PMS_P2;Temp;Humidity;BMP_temperature;BMP_pressure;BME280_temperature;BME280_humidity;BME280_pressure;Samples;Min_cycle;Max_cycle;Signal;HPM_P1;HPM_P2
2022/04/23 00:00:50;;;;;;;;;40.67;31.67;;;;;;;;5037438;28;45219;-68
2022/04/23 00:03:15;;;;;;;;;35.33;29.67;;;;;;;;5036477;28;45543;-67
2022/04/23 00:05:41;;;;;;;;;30.67;28.00;;;;;;;;5037073;28;45364;-67
2022/04/23 00:08:06;;;;;;;;;33.67;27.00;;;;;;;;5036917;28;45425;-67
2022/04/23 00:10:32;;;;;;;;;26.67;23.67;;;;;;;;5037133;28;45580;-67
2022/04/23 00:12:57;;;;;;;;;33.67;28.33;;;;;;;;5037307;28;45319;-67
2022/04/23 00:15:24;;;;;;;;;34.00;29.67;;;;;;;;5036953;28;46051;-67
2022/04/23 00:17:49;;;;;;;;;35.67;32.00;;;;;;;;5037120;28;45286;-67
2022/04/23 00:20:15;;;;;;;;;29.67;29.00;;;;;;;;5037038;28;45298;-67
2022/04/23 00:22:40;;;;;;;;;35.33;31.00;;;;;;;;5037368;28;45352;-67
2022/04/23 00:25:06;;;;;;;;;34.00;30.00;;;;;;;;5036658;28;47052;-67
2022/04/23 00:27:31;;;;;;;;;36.00;31.00;;;;;;;;5036937;28;45320;-67
2022/04/23 00:29:56;;;;;;;;;30.33;27.67;;;;;;;;5036918;28;45158;-67
2022/04/23 00:32:21;;;;;;;;;35.33;30.67;;;;;;;;5037084;28;45471;-67
2022/04/23 00:34:46;;;;;;;;;35.67;32.00;;;;;;;;5036655;28;46585;-67
2022/04/23 00:37:13;;;;;;;;;29.67;27.00;;;;;;;;5037158;28;45210;-67
2022/04/23 00:39:38;;;;;;;;;30.33;24.00;;;;;;;;5036947;28;45440;-66
2022/04/23 00:42:08;;;;;;;;;35.67;31.00;;;;;;;;5037019;28;45471;-66
2022/04/23 00:44:34;;;;;;;;;35.67;31.00;;;;;;;;5036198;28;45418;-67
2022/04/23 00:46:59;;;;;;;;;43.00;34.33;;;;;;;;5036495;28;45268;-67
2022/04/23 00:49:24;;;;;;;;;35.67;32.33;;;;;;;;5036786;28;45387;-67
2022/04/23 00:51:49;;;;;;;;;33.00;30.33;;;;;;;;5036759;28;45217;-67
2022/04/23 00:54:15;;;;;;;;;33.00;28.67;;;;;;;;5036742;28;45587;-67
2022/04/23 00:56:40;;;;;;;;;36.67;32.00;;;;;;;;5036348;28;45328;-67
2022/04/23 00:59:10;;;;;;;;;32.33;28.00;;;;;;;;5036429;28;45364;-67
2022/04/23 01:01:35;;;;;;;;;42.00;33.33;;;;;;;;5036910;28;45554;-67
2022/04/23 01:04:02;;;;;;;;;32.67;31.00;;;;;;;;5035624;28;46701;-68
2022/04/23 01:06:28;;;;;;;;;36.67;31.67;;;;;;;;5036038;28;45336;-68
2022/04/23 01:08:53;;;;;;;;;34.00;29.33;;;;;;;;5036406;28;45437;-68
2022/04/23 01:11:18;;;;;;;;;35.67;29.00;;;;;;;;5036794;28;45494;-68
2022/04/23 01:13:44;;;;;;;;;38.00;32.00;;;;;;;;5036682;28;46428;-68
2022/04/23 01:16:09;;;;;;;;;39.67;32.67;;;;;;;;5039266;28;45452;-68
2022/04/23 01:18:38;;;;;;;;;32.67;30.00;;;;;;;;5039483;28;45436;-68
2022/04/23 01:21:04;;;;;;;;;37.00;31.67;;;;;;;;5039703;28;45321;-68
2022/04/23 01:23:30;;;;;;;;;37.00;31.33;;;;;;;;5039259;28;46881;-68
2022/04/23 01:25:55;;;;;;;;;34.33;30.67;;;;;;;;5039577;28;45433;-68
2022/04/23 01:28:21;;;;;;;;;39.67;32.33;;;;;;;;5039579;28;45341;-68
2022/04/23 01:30:50;;;;;;;;;39.33;31.33;;;;;;;;5039414;28;45413;-68
2022/04/23 01:33:16;;;;;;;;;29.67;29.67;;;;;;;;5039031;28;45862;-68
2022/04/23 01:35:42;;;;;;;;;38.67;34.00;;;;;;;;5039167;28;45349;-68
2022/04/23 01:38:07;;;;;;;;;41.67;34.67;;;;;;;;5039744;28;45242;-68
2022/04/23 01:40:32;;;;;;;;;38.00;32.00;;;;;;;;5039484;28;45286;-68
2022/04/23 01:42:58;;;;;;;;;38.33;32.33;;;;;;;;5039040;28;45346;-68
2022/04/23 01:45:24;;;;;;;;;34.33;30.67;;;;;;;;5039290;28;45438;-68
2022/04/23 01:47:49;;;;;;;;;35.33;30.67;;;;;;;;5039096;28;45409;-68
2022/04/23 01:50:14;;;;;;;;;36.33;31.33;;;;;;;;5039640;28;45372;-68
2022/04/23 01:52:39;;;;;;;;;44.00;35.33;;;;;;;;5038763;28;45407;-68
2022/04/23 01:55:05;;;;;;;;;43.67;32.00;;;;;;;;5038900;28;45372;-69
2022/04/23 01:57:30;;;;;;;;;38.00;31.33;;;;;;;;5039224;28;45299;-68
2022/04/23 01:59:55;;;;;;;;;33.00;31.00;;;;;;;;5039384;28;45357;-68
2022/04/23 02:02:22;;;;;;;;;39.33;34.33;;;;;;;;5039320;28;45437;-69
2022/04/23 02:04:47;;;;;;;;;38.00;33.33;;;;;;;;5039034;28;45512;-68
2022/04/23 02:07:12;;;;;;;;;44.33;31.33;;;;;;;;5038811;28;45449;-68
2022/04/23 02:09:38;;;;;;;;;44.67;35.00;;;;;;;;5039395;28;45322;-68
2022/04/23 02:12:03;;;;;;;;;40.00;32.00;;;;;;;;5038760;28;46454;-68
2022/04/23 02:14:28;;;;;;;;;32.00;30.67;;;;;;;;5038912;28;45298;-68
2022/04/23 02:16:53;;;;;;;;;42.33;35.67;;;;;;;;5038795;28;45499;-68
2022/04/23 02:19:19;;;;;;;;;38.33;33.33;;;;;;;;5039160;28;45560;-68
2022/04/23 02:21:44;;;;;;;;;38.67;34.00;;;;;;;;5038858;28;46630;-68
2022/04/23 02:24:10;;;;;;;;;38.33;33.33;;;;;;;;5038561;28;45538;-68
2022/04/23 02:26:35;;;;;;;;;40.67;34.00;;;;;;;;5038168;28;45454;-68
2022/04/23 02:29:00;;;;;;;;;37.33;30.33;;;;;;;;5038751;28;45580;-69
2022/04/23 02:31:26;;;;;;;;;42.33;33.67;;;;;;;;5037616;28;46162;-69
2022/04/23 02:33:51;;;;;;;;;34.33;33.00;;;;;;;;5038705;28;45258;-70
2022/04/23 02:36:16;;;;;;;;;40.33;33.67;;;;;;;;5038653;28;45274;-68
2022/04/23 02:38:41;;;;;;;;;33.67;30.67;;;;;;;;5039146;28;45396;-68
2022/04/23 02:41:07;;;;;;;;;37.33;32.67;;;;;;;;5038051;28;46376;-69
2022/04/23 02:43:35;;;;;;;;;35.67;32.00;;;;;;;;5038522;28;45262;-69
2022/04/23 02:46:01;;;;;;;;;43.67;35.00;;;;;;;;5038646;28;45415;-69
2022/04/23 02:48:26;;;;;;;;;40.00;33.67;;;;;;;;5038610;28;45388;-68
2022/04/23 02:50:51;;;;;;;;;39.33;31.67;;;;;;;;5038412;28;45386;-71
2022/04/23 02:53:16;;;;;;;;;38.33;33.00;;;;;;;;5038040;28;45443;-69
2022/04/23 02:55:42;;;;;;;;;37.00;33.67;;;;;;;;5038223;28;45257;-69
2022/04/23 02:58:10;;;;;;;;;34.00;31.00;;;;;;;;5038492;28;45234;-69
2022/04/23 03:00:38;;;;;;;;;40.67;33.00;;;;;;;;5037979;28;45707;-69
2022/04/23 03:03:05;;;;;;;;;36.33;33.33;;;;;;;;5038204;28;45329;-69
2022/04/23 03:05:31;;;;;;;;;41.67;33.33;;;;;;;;5038075;28;45347;-70
2022/04/23 03:07:56;;;;;;;;;42.67;36.00;;;;;;;;5020144;28;45498;-70
2022/04/23 03:10:21;;;;;;;;;45.00;35.00;;;;;;;;5038119;28;45416;-70
2022/04/23 03:12:46;;;;;;;;;34.33;31.00;;;;;;;;5038094;28;45316;-69
2022/04/23 03:15:13;;;;;;;;;41.67;32.33;;;;;;;;5037892;28;45423;-70
2022/04/23 03:17:39;;;;;;;;;45.67;32.33;;;;;;;;5037961;28;45271;-70
2022/04/23 03:20:05;;;;;;;;;44.67;36.00;;;;;;;;5037721;28;45355;-70
2022/04/23 03:22:30;;;;;;;;;44.00;34.33;;;;;;;;5038095;28;45368;-70
2022/04/23 03:24:55;;;;;;;;;43.67;36.33;;;;;;;;5037809;28;45451;-70
2022/04/23 03:27:20;;;;;;;;;35.33;33.00;;;;;;;;5038267;28;45186;-70
2022/04/23 03:29:46;;;;;;;;;44.33;34.00;;;;;;;;5037619;28;45316;-69
2022/04/23 03:32:11;;;;;;;;;34.00;32.67;;;;;;;;5037384;28;45495;-69
2022/04/23 03:34:37;;;;;;;;;36.33;32.33;;;;;;;;5038153;28;45218;-70
2022/04/23 03:37:03;;;;;;;;;40.33;33.00;;;;;;;;5036558;28;45348;-70
2022/04/23 03:39:28;;;;;;;;;40.00;35.33;;;;;;;;5037645;28;45471;-69
2022/04/23 03:41:53;;;;;;;;;39.00;33.67;;;;;;;;5037405;28;45444;-70
2022/04/23 03:44:18;;;;;;;;;46.67;34.67;;;;;;;;5037739;28;45397;-69
2022/04/23 03:46:44;;;;;;;;;40.33;34.33;;;;;;;;5037553;28;45495;-69
2022/04/23 03:49:09;;;;;;;;;38.00;30.67;;;;;;;;5037049;28;46540;-72
2022/04/23 03:51:34;;;;;;;;;39.67;33.33;;;;;;;;5037528;28;45392;-71
2022/04/23 03:54:01;;;;;;;;;43.33;35.00;;;;;;;;5037346;28;45380;-71
2022/04/23 03:56:26;;;;;;;;;44.00;32.00;;;;;;;;5037532;28;45321;-70
2022/04/23 03:58:51;;;;;;;;;50.00;36.00;;;;;;;;5037330;28;46515;-71
2022/04/23 04:01:17;;;;;;;;;44.00;34.33;;;;;;;;5037132;28;45440;-71
2022/04/23 04:03:43;;;;;;;;;42.33;35.00;;;;;;;;5035627;28;45468;-71
2022/04/23 04:06:08;;;;;;;;;40.67;33.00;;;;;;;;5037327;28;45486;-71
2022/04/23 04:08:33;;;;;;;;;45.33;34.00;;;;;;;;5037133;28;46033;-71
2022/04/23 04:10:58;;;;;;;;;37.67;34.33;;;;;;;;5052695;28;45433;-69
2022/04/23 04:13:24;;;;;;;;;42.67;33.00;;;;;;;;5037148;28;45270;-69
2022/04/23 04:15:49;;;;;;;;;44.00;35.67;;;;;;;;5037359;28;45354;-69
2022/04/23 04:18:15;;;;;;;;;38.33;33.33;;;;;;;;5036909;28;45712;-69
2022/04/23 04:20:40;;;;;;;;;40.67;32.67;;;;;;;;5019173;28;45192;-69
2022/04/23 04:23:06;;;;;;;;;32.33;30.00;;;;;;;;5025893;28;45278;-69
2022/04/23 04:25:31;;;;;;;;;33.00;31.00;;;;;;;;5028376;28;45285;-69
2022/04/23 04:27:58;;;;;;;;;38.33;33.67;;;;;;;;5017058;28;45460;-71
2022/04/23 04:30:24;;;;;;;;;37.33;33.67;;;;;;;;5016904;28;45406;-72
2022/04/23 04:32:49;;;;;;;;;38.67;34.67;;;;;;;;5016934;28;45322;-71
2022/04/23 04:35:14;;;;;;;;;38.00;33.33;;;;;;;;5017265;28;45307;-71
2022/04/23 04:37:40;;;;;;;;;40.00;35.00;;;;;;;;5016813;28;46214;-71
2022/04/23 04:40:05;;;;;;;;;44.00;35.33;;;;;;;;5032291;28;45354;-71
2022/04/23 04:42:31;;;;;;;;;43.33;33.67;;;;;;;;5016552;28;45317;-70
2022/04/23 04:44:56;;;;;;;;;39.00;34.33;;;;;;;;5017069;28;45291;-71
2022/04/23 04:47:21;;;;;;;;;36.50;33.00;;;;;;;;5016428;28;45366;-72
2022/04/23 04:49:46;;;;;;;;;43.00;33.67;;;;;;;;5019592;28;45441;-72
2022/04/23 04:52:12;;;;;;;;;44.67;32.00;;;;;;;;5020834;28;45378;-71
2022/04/23 04:54:37;;;;;;;;;44.67;36.33;;;;;;;;5020512;28;45295;-72
2022/04/23 04:57:03;;;;;;;;;45.33;36.33;;;;;;;;5020083;28;46680;-72
2022/04/23 04:59:30;;;;;;;;;46.33;36.00;;;;;;;;5020295;28;45470;-71
2022/04/23 05:01:55;;;;;;;;;47.00;38.00;;;;;;;;5019825;28;45252;-70
2022/04/23 05:04:21;;;;;;;;;45.67;34.33;;;;;;;;5020538;28;45363;-70
2022/04/23 05:06:46;;;;;;;;;44.00;36.33;;;;;;;;5020020;28;46284;-69
2022/04/23 05:09:11;;;;;;;;;46.00;37.67;;;;;;;;5020097;28;45410;-70
2022/04/23 05:11:37;;;;;;;;;38.00;32.00;;;;;;;;5020186;28;45267;-70
2022/04/23 05:14:02;;;;;;;;;43.67;34.00;;;;;;;;5020262;28;45388;-69
2022/04/23 05:16:27;;;;;;;;;41.33;34.67;;;;;;;;5019655;28;45621;-69
2022/04/23 05:18:53;;;;;;;;;48.33;38.67;;;;;;;;5019857;28;45482;-69
2022/04/23 05:21:18;;;;;;;;;43.00;35.67;;;;;;;;5019977;28;45806;-69
2022/04/23 05:23:43;;;;;;;;;46.00;36.33;;;;;;;;5020010;28;45379;-70
2022/04/23 05:26:09;;;;;;;;;45.67;34.00;;;;;;;;5019681;28;46364;-69
2022/04/23 05:28:35;;;;;;;;;49.33;39.00;;;;;;;;5019684;28;45343;-70
2022/04/23 05:31:00;;;;;;;;;46.67;38.67;;;;;;;;5019471;28;45306;-69
2022/04/23 05:33:25;;;;;;;;;36.67;31.00;;;;;;;;5019625;28;45393;-70
2022/04/23 05:35:50;;;;;;;;;36.00;32.00;;;;;;;;5019401;28;46303;-69
2022/04/23 05:38:20;;;;;;;;;42.33;35.33;;;;;;;;5019442;28;45349;-70
2022/04/23 05:40:45;;;;;;;;;45.67;36.33;;;;;;;;5019742;28;45461;-70
2022/04/23 05:43:10;;;;;;;;;43.33;36.00;;;;;;;;5019690;28;45287;-69
2022/04/23 05:45:35;;;;;;;;;48.00;40.00;;;;;;;;5019086;28;45498;-70
2022/04/23 05:48:01;;;;;;;;;51.00;40.67;;;;;;;;5018952;28;45325;-70
2022/04/23 05:50:26;;;;;;;;;45.67;35.67;;;;;;;;5019447;28;45271;-70
2022/04/23 05:52:52;;;;;;;;;48.33;38.67;;;;;;;;5019669;28;45211;-69
2022/04/23 05:55:17;;;;;;;;;47.33;36.33;;;;;;;;5019193;28;45367;-69
2022/04/23 05:57:42;;;;;;;;;50.33;38.00;;;;;;;;5019236;28;45213;-71
2022/04/23 06:00:09;;;;;;;;;53.33;40.00;;;;;;;;5018297;28;45295;-70
2022/04/23 06:02:34;;;;;;;;;47.67;38.67;;;;;;;;5019241;28;45495;-70
2022/04/23 06:05:00;;;;;;;;;48.33;39.00;;;;;;;;5018914;28;46322;-70
2022/04/23 06:07:25;;;;;;;;;46.67;38.00;;;;;;;;5019031;28;45468;-70
2022/04/23 06:09:50;;;;;;;;;50.33;40.00;;;;;;;;5019472;28;45349;-70
2022/04/23 06:12:16;;;;;;;;;52.67;38.67;;;;;;;;5019461;28;45412;-69
2022/04/23 06:14:41;;;;;;;;;46.00;39.00;;;;;;;;5019080;28;46500;-69
2022/04/23 06:17:07;;;;;;;;;48.67;39.33;;;;;;;;5018768;28;45413;-70
2022/04/23 06:19:33;;;;;;;;;46.00;38.67;;;;;;;;5018771;28;45854;-70
2022/04/23 06:21:59;;;;;;;;;46.67;38.33;;;;;;;;5019187;28;45370;-69
2022/04/23 06:24:25;;;;;;;;;50.00;40.00;;;;;;;;5018736;28;46419;-74
2022/04/23 06:26:52;;;;;;;;;46.67;37.67;;;;;;;;5018163;28;45331;-72
2022/04/23 06:29:17;;;;;;;;;45.00;37.00;;;;;;;;5018946;28;45281;-70
2022/04/23 06:31:44;;;;;;;;;48.67;41.00;;;;;;;;5018773;28;45380;-71
2022/04/23 06:34:09;;;;;;;;;46.00;37.00;;;;;;;;5018847;28;45581;-70
2022/04/23 06:36:36;;;;;;;;;50.00;39.67;;;;;;;;5018308;28;45405;-71
2022/04/23 06:39:02;;;;;;;;;48.00;38.33;;;;;;;;5018809;28;45404;-70
2022/04/23 06:41:27;;;;;;;;;47.33;40.00;;;;;;;;5018812;28;45287;-69
2022/04/23 06:43:52;;;;;;;;;50.00;40.00;;;;;;;;5018493;28;46226;-68
2022/04/23 06:46:17;;;;;;;;;47.67;37.67;;;;;;;;5018764;28;45306;-69
2022/04/23 06:48:43;;;;;;;;;44.67;37.33;;;;;;;;5016385;28;45298;-70
2022/04/23 06:51:08;;;;;;;;;42.33;34.33;;;;;;;;5018698;28;45501;-71
2022/04/23 06:53:33;;;;;;;;;48.00;38.67;;;;;;;;5018565;28;46121;-69
2022/04/23 06:55:58;;;;;;;;;46.00;39.33;;;;;;;;5017910;28;45466;-70
2022/04/23 06:58:24;;;;;;;;;46.33;39.00;;;;;;;;5018024;28;45298;-69
2022/04/23 07:00:49;;;;;;;;;45.67;38.00;;;;;;;;5018073;28;45299;-70
2022/04/23 07:03:14;;;;;;;;;47.33;37.00;;;;;;;;5017582;28;45500;-70
2022/04/23 07:05:39;;;;;;;;;45.67;36.67;;;;;;;;5018025;28;45406;-71
2022/04/23 07:08:05;;;;;;;;;40.00;35.67;;;;;;;;5018139;28;45211;-71
2022/04/23 07:10:31;;;;;;;;;46.33;37.33;;;;;;;;5017861;28;45485;-71
2022/04/23 07:12:57;;;;;;;;;48.00;40.33;;;;;;;;5017608;28;45634;-72
2022/04/23 07:15:24;;;;;;;;;48.00;39.67;;;;;;;;5018030;28;45423;-72
2022/04/23 07:17:50;;;;;;;;;36.67;31.67;;;;;;;;5018733;28;45442;-71
2022/04/23 07:20:19;;;;;;;;;44.67;36.00;;;;;;;;5017985;28;45545;-70
2022/04/23 07:24:03;;;;;;;;;46.33;38.00;;;;;;;;5017908;28;47280;-70
2022/04/23 07:25:29;;;;;;;;;43.67;36.00;;;;;;;;5017573;28;45248;-71
2022/04/23 07:27:55;;;;;;;;;48.67;38.00;;;;;;;;5017430;28;45761;-71
2022/04/23 07:30:21;;;;;;;;;43.67;34.33;;;;;;;;5017590;28;45673;-71
2022/04/23 07:32:46;;;;;;;;;47.00;35.33;;;;;;;;5017430;28;47507;-70
2022/04/23 07:37:55;;;;;;;;;50.33;40.33;;;;;;;;5017092;28;45347;-69
2022/04/23 07:40:20;;;;;;;;;46.33;37.00;;;;;;;;5017539;28;45422;-70
2022/04/23 07:42:46;;;;;;;;;49.33;38.67;;;;;;;;5017135;28;45445;-69
2022/04/23 07:45:11;;;;;;;;;38.33;35.00;;;;;;;;5032711;28;45313;-68
2022/04/23 07:47:37;;;;;;;;;45.00;37.33;;;;;;;;5016946;28;45348;-68
2022/04/23 07:50:04;;;;;;;;;44.67;39.33;;;;;;;;5016956;28;45425;-69
2022/04/23 07:52:29;;;;;;;;;38.00;32.33;;;;;;;;5024824;28;46283;-67
2022/04/23 07:54:54;;;;;;;;;51.67;40.33;;;;;;;;5036843;28;45292;-69
2022/04/23 07:57:20;;;;;;;;;40.33;34.67;;;;;;;;5036381;28;45782;-68
2022/04/23 07:59:46;;;;;;;;;43.00;34.33;;;;;;;;5036676;28;45386;-69
2022/04/23 08:02:11;;;;;;;;;40.33;34.00;;;;;;;;5036733;28;45722;-70
2022/04/23 08:04:36;;;;;;;;;40.33;36.00;;;;;;;;5036721;28;45396;-70
2022/04/23 08:07:01;;;;;;;;;47.00;35.67;;;;;;;;5023958;28;45448;-75
2022/04/23 08:09:27;;;;;;;;;40.67;36.67;;;;;;;;5033152;28;45390;-72
2022/04/23 08:11:52;;;;;;;;;37.67;35.00;;;;;;;;5035020;28;45740;-71
2022/04/23 08:14:18;;;;;;;;;36.00;34.00;;;;;;;;5029727;28;45394;-68
2022/04/23 08:16:45;;;;;;;;;43.33;33.67;;;;;;;;5016925;28;45310;-68
2022/04/23 08:19:10;;;;;;;;;45.33;37.33;;;;;;;;5015544;28;45470;-67
2022/04/23 08:21:35;;;;;;;;;44.00;37.33;;;;;;;;5016233;28;46164;-67
2022/04/23 08:24:01;;;;;;;;;37.00;34.33;;;;;;;;5038636;28;45379;-69
2022/04/23 08:26:26;;;;;;;;;45.67;35.67;;;;;;;;5042915;28;45385;-68
2022/04/23 08:31:35;;;;;;;;;42.33;37.33;;;;;;;;5043487;28;45768;-69
2022/04/23 08:34:00;;;;;;;;;42.00;35.67;;;;;;;;5042723;28;45847;-72
2022/04/23 08:36:27;;;;;;;;;44.33;33.33;;;;;;;;5043363;28;45363;-74
2022/04/23 08:38:55;;;;;;;;;41.00;34.33;;;;;;;;5043217;28;45433;-72
2022/04/23 08:41:21;;;;;;;;;45.00;36.33;;;;;;;;5042551;28;45815;-72
2022/04/23 08:43:47;;;;;;;;;36.33;32.00;;;;;;;;5042921;28;45286;-71
2022/04/23 08:46:14;;;;;;;;;39.67;34.67;;;;;;;;5042977;28;45259;-70
2022/04/23 08:48:42;;;;;;;;;39.67;34.67;;;;;;;;5042521;28;45699;-68
2022/04/23 08:51:11;;;;;;;;;47.33;35.00;;;;;;;;5042063;28;45467;-70
2022/04/23 08:53:40;;;;;;;;;37.00;34.33;;;;;;;;5042291;28;45458;-73
2022/04/23 08:56:05;;;;;;;;;36.67;32.33;;;;;;;;5042673;28;45366;-71
2022/04/23 08:58:31;;;;;;;;;45.67;37.33;;;;;;;;5042850;28;45358;-70
2022/04/23 09:00:56;;;;;;;;;39.33;33.33;;;;;;;;5041864;28;45859;-70
2022/04/23 09:03:21;;;;;;;;;40.67;35.67;;;;;;;;5042292;28;45453;-73
2022/04/23 09:05:50;;;;;;;;;40.00;34.33;;;;;;;;5042028;28;45486;-68
2022/04/23 09:08:16;;;;;;;;;36.67;33.67;;;;;;;;5042546;28;45337;-71
2022/04/23 09:10:42;;;;;;;;;44.67;36.33;;;;;;;;5042244;28;46696;-70
2022/04/23 09:13:07;;;;;;;;;35.67;31.67;;;;;;;;5042411;28;45520;-70
2022/04/23 09:24:03;;;;;;;;;37.67;32.00;;;;;;;;5042077;28;45552;-69
2022/04/23 09:26:28;;;;;;;;;38.33;34.67;;;;;;;;5041877;28;45553;-68
2022/04/23 09:28:57;;;;;;;;;36.67;33.00;;;;;;;;5042347;28;45528;-74
2022/04/23 09:31:23;;;;;;;;;41.00;34.67;;;;;;;;5034080;28;46654;-71
2022/04/23 09:33:51;;;;;;;;;42.00;36.00;;;;;;;;5041269;28;45333;-71
2022/04/23 09:36:16;;;;;;;;;48.33;34.00;;;;;;;;5023458;28;45311;-72
2022/04/23 09:38:42;;;;;;;;;42.67;35.33;;;;;;;;5032563;28;45663;-71
2022/04/23 09:41:18;;;;;;;;;36.33;33.33;;;;;;;;5037844;28;46187;-78
2022/04/23 09:43:44;;;;;;;;;42.67;35.33;;;;;;;;5027602;28;45340;-73
2022/04/23 09:46:09;;;;;;;;;34.67;30.00;;;;;;;;5034771;28;45417;-69
2022/04/23 09:48:37;;;;;;;;;35.67;28.33;;;;;;;;5038514;28;45388;-71
2022/04/23 09:51:03;;;;;;;;;40.33;35.00;;;;;;;;5035858;28;46602;-68
2022/04/23 09:53:28;;;;;;;;;48.33;36.33;;;;;;;;5026494;28;45429;-72
2022/04/23 09:55:59;;;;;;;;;42.00;34.33;;;;;;;;5036977;28;45369;-75
2022/04/23 09:58:24;;;;;;;;;41.67;32.67;;;;;;;;5031900;28;45374;-72
2022/04/23 10:00:49;;;;;;;;;35.33;32.33;;;;;;;;5033779;28;45547;-71
2022/04/23 10:03:15;;;;;;;;;38.67;33.33;;;;;;;;5023362;28;45515;-72
2022/04/23 10:05:47;;;;;;;;;34.67;30.33;;;;;;;;5030595;28;45931;-72
2022/04/23 10:08:17;;;;;;;;;41.00;33.67;;;;;;;;5032236;28;45510;-67
2022/04/23 10:10:42;;;;;;;;;40.00;31.00;;;;;;;;5034026;28;45278;-74
2022/04/23 10:13:09;;;;;;;;;39.00;34.67;;;;;;;;5045948;28;45571;-73
2022/04/23 10:15:34;;;;;;;;;37.67;33.00;;;;;;;;5058555;28;45360;-73
2022/04/23 10:18:00;;;;;;;;;38.00;33.67;;;;;;;;5040096;28;45407;-73
2022/04/23 10:20:28;;;;;;;;;40.00;34.67;;;;;;;;5034276;28;46278;-72
2022/04/23 10:23:11;;;;;;;;;36.00;32.67;;;;;;;;5028172;28;45353;-72
2022/04/23 10:25:39;;;;;;;;;41.25;34.25;;;;;;;;5020293;28;45331;-71
2022/04/23 10:28:05;;;;;;;;;43.00;33.75;;;;;;;;5033895;28;45433;-70
2022/04/23 10:30:33;;;;;;;;;36.00;32.33;;;;;;;;5037821;28;45365;-69
2022/04/23 10:33:18;;;;;;;;;35.33;31.33;;;;;;;;5038428;28;45497;-69
2022/04/23 10:35:43;;;;;;;;;30.33;27.33;;;;;;;;5032583;28;45445;-70
2022/04/23 10:38:19;;;;;;;;;35.00;31.75;;;;;;;;5007859;28;45440;-70
2022/04/23 10:40:45;;;;;;;;;29.00;28.00;;;;;;;;5029447;28;46822;-70
2022/04/23 10:43:12;;;;;;;;;34.67;31.67;;;;;;;;5017711;28;45564;-69
2022/04/23 10:45:39;;;;;;;;;39.25;33.00;;;;;;;;5017158;28;45452;-70
2022/04/23 10:48:23;;;;;;;;;35.67;31.33;;;;;;;;5017844;28;45473;-70
2022/04/23 10:51:15;;;;;;;;;35.25;32.50;;;;;;;;5036864;28;46284;-69
2022/04/23 10:53:41;;;;;;;;;34.00;29.67;;;;;;;;4972128;28;45529;-70
2022/04/23 10:56:07;;;;;;;;;31.50;30.25;;;;;;;;4972088;28;45503;-70
2022/04/23 10:58:33;;;;;;;;;35.33;33.00;;;;;;;;4976158;28;45422;-69
2022/04/23 11:01:20;;;;;;;;;35.33;31.33;;;;;;;;4976276;28;47330;-70
2022/04/23 11:03:49;;;;;;;;;33.67;31.67;;;;;;;;4969276;28;45419;-70
2022/04/23 11:12:16;;;;;;;;;39.00;32.33;;;;;;;;4956343;28;45799;-69
2022/04/23 11:14:44;;;;;;;;;41.67;34.67;;;;;;;;4956752;28;45303;-69
2022/04/23 11:17:13;;;;;;;;;35.00;31.67;;;;;;;;4957322;28;45713;-69
2022/04/23 11:19:39;;;;;;;;;38.33;33.67;;;;;;;;4976211;28;45396;-71
2022/04/23 11:22:05;;;;;;;;;43.00;36.00;;;;;;;;4973558;28;46208;-69
2022/04/23 11:24:30;;;;;;;;;37.67;34.00;;;;;;;;4972994;28;45321;-70
2022/04/23 11:26:56;;;;;;;;;42.33;35.67;;;;;;;;4976003;28;45483;-69
2022/04/23 11:29:21;;;;;;;;;40.00;36.33;;;;;;;;4992567;28;45566;-69
2022/04/23 11:31:53;;;;;;;;;36.00;31.67;;;;;;;;5035735;28;45554;-70
2022/04/23 11:34:19;;;;;;;;;40.33;35.00;;;;;;;;5036480;28;45390;-70
2022/04/23 11:36:44;;;;;;;;;42.33;33.33;;;;;;;;5037236;28;45400;-70
2022/04/23 11:39:10;;;;;;;;;43.67;36.00;;;;;;;;5037167;28;45469;-70
2022/04/23 11:41:35;;;;;;;;;41.67;36.00;;;;;;;;5034767;28;46508;-70
2022/04/23 11:44:50;;;;;;;;;44.00;35.33;;;;;;;;5033386;28;45249;-68
2022/04/23 11:47:27;;;;;;;;;41.67;34.33;;;;;;;;4975391;28;45422;-68
2022/04/23 11:49:52;;;;;;;;;38.67;34.67;;;;;;;;4976034;28;45315;-68
2022/04/23 11:52:18;;;;;;;;;44.00;34.00;;;;;;;;4976581;28;45545;-69
2022/04/23 11:54:44;;;;;;;;;32.67;31.33;;;;;;;;4977881;28;45744;-68
2022/04/23 11:57:11;;;;;;;;;50.33;37.67;;;;;;;;4991245;28;45687;-68
2022/04/23 11:59:39;;;;;;;;;42.67;34.33;;;;;;;;4994567;28;45500;-68
2022/04/23 12:02:25;;;;;;;;;44.33;36.33;;;;;;;;4983862;28;45514;-68
2022/04/23 12:04:51;;;;;;;;;38.67;32.33;;;;;;;;4993078;28;45406;-66
2022/04/23 12:07:17;;;;;;;;;41.33;34.33;;;;;;;;4994405;28;45466;-65
2022/04/23 12:09:52;;;;;;;;;45.33;36.67;;;;;;;;4994322;28;45491;-68
2022/04/23 12:12:19;;;;;;;;;40.33;34.33;;;;;;;;4993836;28;46691;-66
2022/04/23 12:14:48;;;;;;;;;41.33;32.00;;;;;;;;4993725;28;45486;-68
2022/04/23 12:17:27;;;;;;;;;46.67;36.00;;;;;;;;4993712;28;45345;-66
2022/04/23 12:19:54;;;;;;;;;41.67;35.33;;;;;;;;4993152;28;45512;-67
2022/04/23 12:22:25;;;;;;;;;41.33;32.00;;;;;;;;4996166;28;45549;-68
2022/04/23 12:24:50;;;;;;;;;39.00;33.00;;;;;;;;5034834;28;45440;-67
2022/04/23 12:27:18;;;;;;;;;40.67;34.33;;;;;;;;5036113;28;45878;-67
2022/04/23 12:40:50;;;;;;;;;36.33;32.33;;;;;;;;5034168;28;46593;-69
2022/04/23 12:43:20;;;;;;;;;32.00;30.33;;;;;;;;5032342;28;47029;-70
2022/04/23 12:45:45;;;;;;;;;44.00;34.67;;;;;;;;5034754;28;45759;-70
2022/04/23 12:48:12;;;;;;;;;33.00;31.67;;;;;;;;5034693;28;45692;-70
2022/04/23 12:50:38;;;;;;;;;36.67;31.33;;;;;;;;5034878;28;45454;-72
2022/04/23 12:53:04;;;;;;;;;36.33;32.00;;;;;;;;5034465;28;45941;-73
2022/04/23 12:55:36;;;;;;;;;40.00;32.67;;;;;;;;5035271;28;45376;-71
2022/04/23 12:58:08;;;;;;;;;34.33;32.00;;;;;;;;5041930;28;45435;-70
2022/04/23 13:00:37;;;;;;;;;37.67;33.00;;;;;;;;5035584;28;45287;-69
2022/04/23 13:05:48;;;;;;;;;40.33;34.33;;;;;;;;5034411;28;45460;-70
2022/04/23 13:11:24;;;;;;;;;34.67;32.00;;;;;;;;5037951;28;45468;-67
2022/04/23 13:13:43;;;;;;;;;35.33;32.33;;;;;;;;5038851;28;46263;-68
2022/04/23 13:16:08;;;;;;;;;44.67;33.33;;;;;;;;5038053;28;45500;-68
2022/04/23 13:18:34;;;;;;;;;40.00;33.33;;;;;;;;5039115;28;45360;-67
2022/04/23 13:21:00;;;;;;;;;29.67;29.67;;;;;;;;5038801;28;45357;-68
2022/04/23 13:23:25;;;;;;;;;36.33;33.33;;;;;;;;5037761;28;45988;-68
2022/04/23 13:25:50;;;;;;;;;38.67;33.33;;;;;;;;5038397;28;45317;-69
2022/04/23 13:28:15;;;;;;;;;25.00;23.00;;;;;;;;5038608;28;45456;-69
2022/04/23 13:30:40;;;;;;;;;34.67;32.00;;;;;;;;5036349;28;45465;-68
2022/04/23 13:33:06;;;;;;;;;32.33;28.00;;;;;;;;5037866;28;46496;-71
2022/04/23 13:35:31;;;;;;;;;35.00;32.00;;;;;;;;5040593;28;45564;-70
2022/04/23 13:37:56;;;;;;;;;35.33;32.33;;;;;;;;5036758;28;45389;-73
2022/04/23 13:40:21;;;;;;;;;31.67;29.33;;;;;;;;5038044;28;45487;-73
2022/04/23 13:42:47;;;;;;;;;37.67;33.00;;;;;;;;5037824;28;47603;-70
2022/04/23 13:45:17;;;;;;;;;40.33;33.67;;;;;;;;5036450;28;45439;-70
2022/04/23 13:47:42;;;;;;;;;33.00;30.33;;;;;;;;5038672;28;45381;-70
2022/04/23 13:50:07;;;;;;;;;38.67;31.33;;;;;;;;5038087;28;45506;-70
2022/04/23 13:52:33;;;;;;;;;27.67;26.33;;;;;;;;5036622;28;45586;-71
2022/04/23 13:54:59;;;;;;;;;33.00;31.33;;;;;;;;5038322;28;45356;-71
2022/04/23 13:57:25;;;;;;;;;31.67;31.00;;;;;;;;5038688;28;45341;-71
2022/04/23 13:59:50;;;;;;;;;30.00;27.00;;;;;;;;5036006;28;45486;-70
2022/04/23 14:10:26;;;;;;;;;35.67;31.67;;;;;;;;5034580;28;45387;-70
2022/04/23 14:12:52;;;;;;;;;37.33;32.33;;;;;;;;5037093;28;46442;-71
2022/04/23 14:15:17;;;;;;;;;36.00;30.33;;;;;;;;5038247;28;45411;-68
2022/04/23 14:17:42;;;;;;;;;33.33;30.00;;;;;;;;5038197;28;45375;-71
2022/04/23 14:20:07;;;;;;;;;29.67;26.33;;;;;;;;5037905;28;45351;-70
2022/04/23 14:22:33;;;;;;;;;23.67;22.67;;;;;;;;5036410;28;47872;-69
2022/04/23 14:24:59;;;;;;;;;29.00;23.00;;;;;;;;5037104;28;45382;-71
2022/04/23 14:27:24;;;;;;;;;30.33;30.33;;;;;;;;5037813;28;45431;-70
2022/04/23 14:29:49;;;;;;;;;33.00;28.33;;;;;;;;5037631;28;45386;-71
2022/04/23 14:32:15;;;;;;;;;26.00;25.33;;;;;;;;5037548;28;46529;-70
2022/04/23 14:34:40;;;;;;;;;32.67;28.33;;;;;;;;5037796;28;45432;-71
2022/04/23 14:37:05;;;;;;;;;27.33;24.67;;;;;;;;5037907;28;45707;-71
2022/04/23 14:39:31;;;;;;;;;28.33;24.33;;;;;;;;5037895;28;45699;-71
2022/04/23 14:41:56;;;;;;;;;24.33;23.00;;;;;;;;5037019;28;46622;-71
2022/04/23 14:44:22;;;;;;;;;24.00;23.33;;;;;;;;5048770;28;45386;-70
2022/04/23 14:46:48;;;;;;;;;26.00;21.67;;;;;;;;5045897;28;45679;-71
2022/04/23 14:49:14;;;;;;;;;31.33;26.67;;;;;;;;5036896;28;45604;-71
2022/04/23 14:54:23;;;;;;;;;30.67;27.33;;;;;;;;5037092;28;45583;-69
2022/04/23 14:56:48;;;;;;;;;24.33;24.33;;;;;;;;5037180;28;45428;-71
2022/04/23 14:59:14;;;;;;;;;28.67;24.33;;;;;;;;5037930;28;45420;-70